Terminal Aerodrome Forecast
Issued by NWS

Home | Current Version | Previous Version | Text Only | Print | Product List | Glossary On
Versions: 1 2 3 4 5 6 7 8 9 10 11 12 13 14 15
000
FTUS45 KTFX 040532
TAFGTF
TAF
KGTF 040532Z 0406/0506 26008KT P6SM SKC
     FM041400 33011KT P6SM SCT100 SCT200
     FM042200 01011KT P6SM VCTS SCT080CB BKN120 PROB30 0500/0504
      VRB28G40KT -TSRA BKN070CB
     FM050400 03015KT P6SM -SHRA SCT035 BKN060=

USA.gov is the U.S. government's official web portal to all federal, state and local government web resources and services.